Clermont, Kentucky
Current Conditions -  °F | °C
As of 7:58 PM on Monday 20 Oct 2014 (Local Time) from KFTK Reporting Station
Scattered Clouds Scattered Clouds  
Wind Chill: 58°   Ceiling: Unl
Heat Index: 58°   Visibility: 10mi
Dew Point: 51°   Wind: 7mph
Humidity: 78%   Direction: 190°S
Pressure: 29.91"   Gusts: NA
Location:  37.93°N, 85.65°W
Report Text: KFTK 202358Z AUTO 19006KT 10SM SCT090 14/11 A2991 RMK AO2 SLP132 T01440106 10199 20144 52009
Loading
Personal Weather Stations






























Interactive Weather Map
Tropical Storm Tracking
New forecast layout! Learn more

10-Day Weather Forecast

Advertisements
Track Severe Weather on mobile